createdAt,value
2023-10-25T00:00:08.366Z,967.18
2023-10-25T00:00:38.322Z,967.18
2023-10-25T00:01:08.755Z,967.18
2023-10-25T00:01:39.295Z,967.08
2023-10-25T00:02:14.852Z,967.08
2023-10-25T00:02:45.994Z,967.18
2023-10-25T00:03:17.055Z,967.18
2023-10-25T00:03:47.730Z,967.18
2023-10-25T00:04:17.264Z,967.18
2023-10-25T00:04:48.236Z,967.08
2023-10-25T00:05:17.441Z,967.08
2023-10-25T00:05:48.799Z,967.02
2023-10-25T00:06:19.461Z,967.08
2023-10-25T00:06:54.374Z,967.08
2023-10-25T00:07:28.116Z,967.18
2023-10-25T00:07:55.999Z,967.18
2023-10-25T00:08:27.233Z,967.18
2023-10-25T00:09:09.410Z,967.18
2023-10-25T00:09:29.321Z,967.29
2023-10-25T00:09:59.006Z,967.29
2023-10-25T00:10:46.628Z,967.08
2023-10-25T00:11:00.549Z,967.08
2023-10-25T00:11:29.839Z,967.08
2023-10-25T00:11:58.881Z,967.08
2023-10-25T00:12:34.287Z,967.08
2023-10-25T00:13:33.117Z,966.91
2023-10-25T00:14:07.658Z,966.91
2023-10-25T00:14:36.015Z,967.02
2023-10-25T00:15:07.944Z,967.02
2023-10-25T00:15:43.473Z,967.08
2023-10-25T00:16:08.035Z,967.08
2023-10-25T00:16:39.519Z,966.91
2023-10-25T00:17:08.924Z,966.91
2023-10-25T00:17:39.966Z,967.18
2023-10-25T00:18:10.732Z,967.18
2023-10-25T00:18:42.916Z,967.18
2023-10-25T00:19:15.646Z,967.18
2023-10-25T00:19:46.693Z,966.91
2023-10-25T00:20:17.402Z,966.91
2023-10-25T00:20:46.476Z,967.08
2023-10-25T00:21:17.330Z,967.18
2023-10-25T00:21:48.405Z,967.18
2023-10-25T00:22:19.138Z,967.08
2023-10-25T00:22:49.674Z,967.08
2023-10-25T00:23:24.345Z,967.29
2023-10-25T00:23:55.996Z,967.29
2023-10-25T00:24:26.406Z,967.29
2023-10-25T00:24:56.156Z,967.29
2023-10-25T00:25:28.687Z,967.08
2023-10-25T00:26:27.987Z,967.08
2023-10-25T00:26:59.772Z,967.08
2023-10-25T00:27:29.621Z,967.18
2023-10-25T00:28:00.723Z,967.18
2023-10-25T00:28:31.204Z,967.18
2023-10-25T00:29:04.062Z,967.18
2023-10-25T00:29:35.449Z,967.29
2023-10-25T00:30:40.023Z,967.08
2023-10-25T00:31:07.188Z,967.08
2023-10-25T00:31:37.967Z,967.18
2023-10-25T00:32:08.306Z,967.18
2023-10-25T00:32:39.399Z,967.29
2023-10-25T00:33:10.959Z,967.29
2023-10-25T00:33:41.868Z,967.29
2023-10-25T00:34:13.095Z,967.29
2023-10-25T00:34:45.902Z,967.18
2023-10-25T00:35:16.622Z,967.18
2023-10-25T00:35:47.657Z,967.18
2023-10-25T00:36:17.505Z,967.18
2023-10-25T00:36:47.590Z,967.08
2023-10-25T00:37:18.386Z,967.29
2023-10-25T00:37:49.751Z,967.29
2023-10-25T00:38:19.921Z,967.18
2023-10-25T00:38:52.818Z,967.18
2023-10-25T00:39:24.550Z,967.08
2023-10-25T00:39:54.788Z,967.08
2023-10-25T00:40:26.815Z,967.18
2023-10-25T00:40:56.986Z,967.18
2023-10-25T00:41:27.117Z,967.08
2023-10-25T00:41:57.590Z,967.08
2023-10-25T00:42:28.250Z,967.18
2023-10-25T00:42:59.128Z,967.18
2023-10-25T00:44:01.103Z,967.18
2023-10-25T00:44:33.231Z,967.29
2023-10-25T00:45:10.451Z,967.29
2023-10-25T00:45:35.901Z,967.29
2023-10-25T00:46:06.447Z,967.29
2023-10-25T00:46:37.164Z,967.29
2023-10-25T00:47:07.649Z,967.29
2023-10-25T00:47:38.311Z,967.39
2023-10-25T00:48:09.572Z,967.39
2023-10-25T00:48:40.326Z,967.08
2023-10-25T00:49:15.152Z,967.08
2023-10-25T00:49:43.093Z,967.29
2023-10-25T00:50:16.541Z,967.29
2023-10-25T00:50:46.439Z,967.39
2023-10-25T00:51:17.304Z,967.39
2023-10-25T00:51:48.102Z,967.29
2023-10-25T00:52:17.428Z,967.08
2023-10-25T00:52:49.280Z,967.08
2023-10-25T00:53:19.629Z,967.39
2023-10-25T00:53:50.504Z,967.39
2023-10-25T00:54:21.234Z,967.18
2023-10-25T00:54:54.890Z,967.18
2023-10-25T00:55:22.999Z,967.29
2023-10-25T00:55:57.196Z,967.29
2023-10-25T00:56:26.998Z,967.39
2023-10-25T00:56:57.459Z,967.39
2023-10-25T00:57:28.314Z,967.39
2023-10-25T00:57:58.556Z,967.39
2023-10-25T00:58:29.036Z,967.08
2023-10-25T00:58:59.944Z,967.08
2023-10-25T00:59:32.027Z,967.29
2023-10-25T01:01:01.254Z,967.29
2023-10-25T01:01:37.213Z,967.08
2023-10-25T01:02:07.301Z,967.08
2023-10-25T01:02:37.726Z,967.29
2023-10-25T01:03:08.628Z,967.29
2023-10-25T01:03:39.485Z,967.18
2023-10-25T01:04:10.685Z,967.18
2023-10-25T01:04:41.181Z,967.39
2023-10-25T01:05:12.920Z,967.39
2023-10-25T01:06:01.212Z,967.29
2023-10-25T01:06:15.735Z,967.29
2023-10-25T01:06:46.984Z,967.29
2023-10-25T01:07:16.792Z,967.29
2023-10-25T01:07:47.105Z,967.18
2023-10-25T01:08:17.876Z,967.29
2023-10-25T01:08:49.790Z,967.29
2023-10-25T01:09:21.244Z,967.18
2023-10-25T01:09:52.288Z,967.18
2023-10-25T01:10:30.092Z,967.18
2023-10-25T01:10:54.010Z,967.18
2023-10-25T01:11:26.019Z,967.39
2023-10-25T01:11:56.887Z,967.39
2023-10-25T01:12:27.081Z,967.29
2023-10-25T01:12:58.356Z,967.29
2023-10-25T01:13:28.591Z,967.18
2023-10-25T01:14:17.599Z,967.18
2023-10-25T01:14:30.419Z,967.18
2023-10-25T01:15:02.277Z,967.18
2023-10-25T01:15:32.762Z,967.18
2023-10-25T01:16:06.289Z,967.18
2023-10-25T01:16:36.696Z,967.08
2023-10-25T01:17:07.351Z,967.08
2023-10-25T01:17:38.224Z,967.02
2023-10-25T01:18:08.035Z,967.02
2023-10-25T01:18:39.227Z,967.18
2023-10-25T01:19:09.988Z,967.18
2023-10-25T01:19:41.253Z,967.08
2023-10-25T01:20:14.037Z,967.08
2023-10-25T01:20:45.878Z,967.02
2023-10-25T01:21:15.483Z,967.02
2023-10-25T01:22:17.796Z,966.81
2023-10-25T01:22:50.305Z,967.08
2023-10-25T01:23:39.143Z,967.02
2023-10-25T01:23:51.465Z,967.02
2023-10-25T01:24:41.407Z,966.91
2023-10-25T01:24:51.818Z,966.91
2023-10-25T01:25:27.131Z,967.02
2023-10-25T01:25:54.747Z,967.02
2023-10-25T01:26:26.905Z,966.81
2023-10-25T01:26:56.387Z,966.81
2023-10-25T01:27:28.313Z,967.08
2023-10-25T01:27:58.414Z,967.08
2023-10-25T01:28:35.116Z,967.18
2023-10-25T01:29:22.278Z,967.18
2023-10-25T01:29:30.258Z,966.91
2023-10-25T01:30:03.338Z,966.91
2023-10-25T01:30:38.484Z,967.02
2023-10-25T01:31:05.084Z,967.02
2023-10-25T01:31:36.059Z,967.02
2023-10-25T01:32:06.427Z,967.02
2023-10-25T01:32:37.224Z,967.02
2023-10-25T01:33:08.542Z,967.02
2023-10-25T01:33:39.677Z,966.91
2023-10-25T01:34:12.443Z,966.91
2023-10-25T01:35:10.422Z,966.91
2023-10-25T01:35:42.108Z,967.08
2023-10-25T01:36:14.650Z,967.08
2023-10-25T01:36:52.101Z,967.02
2023-10-25T01:37:16.656Z,967.02
2023-10-25T01:37:47.847Z,966.81
2023-10-25T01:38:17.586Z,966.81
2023-10-25T01:38:56.553Z,966.91
2023-10-25T01:39:23.544Z,967.02
2023-10-25T01:39:49.846Z,967.02
2023-10-25T01:40:21.477Z,966.91
2023-10-25T01:40:53.032Z,966.91
2023-10-25T01:41:22.886Z,967.08
2023-10-25T01:41:54.164Z,967.08
2023-10-25T01:42:26.765Z,967.02
2023-10-25T01:42:58.713Z,967.02
2023-10-25T01:43:28.909Z,966.91
2023-10-25T01:43:58.949Z,966.91
2023-10-25T01:44:29.041Z,966.81
2023-10-25T01:44:59.679Z,966.81
2023-10-25T01:45:31.622Z,966.91
2023-10-25T01:46:02.625Z,966.91
2023-10-25T01:46:33.017Z,966.91
2023-10-25T01:47:03.912Z,966.91
2023-10-25T01:47:37.093Z,966.81
2023-10-25T01:48:08.257Z,966.81
2023-10-25T01:48:38.258Z,966.91
2023-10-25T01:49:08.981Z,966.91
2023-10-25T01:49:39.713Z,967.02
2023-10-25T01:50:12.347Z,967.02
2023-10-25T01:50:42.044Z,967.02
2023-10-25T01:51:12.517Z,967.02
2023-10-25T01:51:45.465Z,967.02
2023-10-25T01:52:16.409Z,967.02
2023-10-25T01:52:45.205Z,966.91
2023-10-25T01:53:18.293Z,966.91
2023-10-25T01:53:48.681Z,966.91
2023-10-25T01:54:20.379Z,967.02
2023-10-25T01:54:49.878Z,967.02
2023-10-25T01:55:20.053Z,967.02
2023-10-25T01:55:52.366Z,967.02
2023-10-25T01:56:22.410Z,967.08
2023-10-25T01:56:53.569Z,967.08
2023-10-25T01:57:24.649Z,966.91
2023-10-25T01:57:56.338Z,966.91
2023-10-25T01:58:27.562Z,966.81
2023-10-25T01:59:00.314Z,966.81
2023-10-25T01:59:29.144Z,966.91
2023-10-25T01:59:59.565Z,966.91
2023-10-25T02:00:31.085Z,967.08
2023-10-25T02:01:01.382Z,967.08
2023-10-25T02:01:32.142Z,966.91
2023-10-25T02:02:03.431Z,966.91
2023-10-25T02:02:35.395Z,967.08
2023-10-25T02:03:08.695Z,967.08
2023-10-25T02:03:38.263Z,967.02
2023-10-25T02:04:17.659Z,967.02
2023-10-25T02:04:39.728Z,967.08
2023-10-25T02:05:10.679Z,967.08
2023-10-25T02:05:40.294Z,967.08
2023-10-25T02:06:11.752Z,967.08
2023-10-25T02:06:44.547Z,967.02
2023-10-25T02:07:30.234Z,967.02
2023-10-25T02:07:46.283Z,967.02
2023-10-25T02:08:16.450Z,967.02
2023-10-25T02:08:47.744Z,967.18
2023-10-25T02:09:19.848Z,967.18
2023-10-25T02:09:49.863Z,967.08
2023-10-25T02:10:22.658Z,967.08
2023-10-25T02:10:52.823Z,967.08
2023-10-25T02:11:21.395Z,967.02
2023-10-25T02:11:52.186Z,967.02
2023-10-25T02:12:59.519Z,967.08
2023-10-25T02:13:29.164Z,967.02
2023-10-25T02:13:59.061Z,967.02
2023-10-25T02:16:51.705Z,967.02
2023-10-25T02:17:03.582Z,967.08
2023-10-25T02:17:33.742Z,967.08
2023-10-25T02:18:05.076Z,967.08
2023-10-25T02:18:42.060Z,966.91
2023-10-25T02:19:08.994Z,966.91
2023-10-25T02:19:38.146Z,966.81
2023-10-25T02:20:12.210Z,966.81
2023-10-25T02:21:23.269Z,967.02
2023-10-25T02:21:52.355Z,967.02
2023-10-25T02:22:17.498Z,967.02
2023-10-25T02:22:44.927Z,967.02
2023-10-25T02:23:17.051Z,967.02
2023-10-25T02:23:47.562Z,966.81
2023-10-25T02:24:22.707Z,966.81
2023-10-25T02:24:49.991Z,967.02
2023-10-25T02:25:20.100Z,967.02
2023-10-25T02:25:48.964Z,967.02
2023-10-25T02:26:22.975Z,966.91
2023-10-25T02:26:53.298Z,966.91
2023-10-25T02:27:25.194Z,966.81
2023-10-25T02:27:54.924Z,966.81
2023-10-25T02:28:26.260Z,966.91
2023-10-25T02:28:55.342Z,966.91
2023-10-25T02:29:26.928Z,966.91
2023-10-25T02:29:57.009Z,966.91
2023-10-25T02:30:30.439Z,966.81
2023-10-25T02:30:59.601Z,966.81
2023-10-25T02:31:33.727Z,966.91
2023-10-25T02:32:06.041Z,966.91
2023-10-25T02:32:34.900Z,966.91
2023-10-25T02:33:05.139Z,966.91
2023-10-25T02:34:39.749Z,966.61
2023-10-25T02:35:09.343Z,967.02
2023-10-25T02:35:38.569Z,967.02
2023-10-25T02:36:08.840Z,967.02
2023-10-25T02:36:40.188Z,967.02
2023-10-25T02:37:13.694Z,967.02
2023-10-25T02:37:44.492Z,966.71
2023-10-25T02:38:14.740Z,966.71
2023-10-25T02:38:44.937Z,967.02
2023-10-25T02:39:15.680Z,967.02
2023-10-25T02:39:46.228Z,967.08
2023-10-25T02:40:17.019Z,967.08
2023-10-25T02:40:48.317Z,966.81
2023-10-25T02:41:19.277Z,966.91
2023-10-25T02:41:51.226Z,966.91
2023-10-25T02:42:23.789Z,967.02
2023-10-25T02:42:55.228Z,967.02
2023-10-25T02:43:24.384Z,967.02
2023-10-25T02:43:55.104Z,967.02
2023-10-25T02:44:25.916Z,966.71
2023-10-25T02:44:55.852Z,966.71
2023-10-25T02:45:27.773Z,966.71
2023-10-25T02:45:57.317Z,966.71
2023-10-25T02:46:28.941Z,967.08
2023-10-25T02:46:59.271Z,967.08
2023-10-25T02:47:32.707Z,966.81
2023-10-25T02:48:04.964Z,966.81
2023-10-25T02:48:35.323Z,966.91
2023-10-25T02:49:04.989Z,966.91
2023-10-25T02:49:44.526Z,966.91
2023-10-25T02:50:07.381Z,966.91
2023-10-25T02:50:37.409Z,966.71
2023-10-25T02:51:07.861Z,966.71
2023-10-25T02:51:39.168Z,966.91
2023-10-25T02:52:10.404Z,966.91
2023-10-25T02:52:42.168Z,966.81
2023-10-25T02:53:14.059Z,966.81
2023-10-25T02:53:44.485Z,966.91
2023-10-25T02:54:15.860Z,966.91
2023-10-25T02:54:45.483Z,966.91
2023-10-25T02:55:17.042Z,966.91
2023-10-25T02:55:47.349Z,966.71
2023-10-25T02:56:17.774Z,966.71
2023-10-25T02:56:48.480Z,966.71
2023-10-25T02:57:20.814Z,966.81
2023-10-25T02:57:53.588Z,966.81
2023-10-25T02:58:24.996Z,966.71
2023-10-25T02:58:54.856Z,966.71
2023-10-25T02:59:25.877Z,966.71
2023-10-25T02:59:55.673Z,966.71
2023-10-25T03:00:27.944Z,967.02
2023-10-25T03:00:57.638Z,967.02
2023-10-25T03:01:27.902Z,966.81
2023-10-25T03:01:59.324Z,966.81
2023-10-25T03:02:29.675Z,966.71
2023-10-25T03:03:03.078Z,966.71
2023-10-25T03:03:33.598Z,966.81
2023-10-25T03:04:04.514Z,966.81
2023-10-25T03:04:35.256Z,967.08
2023-10-25T03:05:06.182Z,967.08
2023-10-25T03:05:36.542Z,966.81
2023-10-25T03:06:07.238Z,966.81
2023-10-25T03:06:38.083Z,966.91
2023-10-25T03:07:09.965Z,966.91
2023-10-25T03:07:39.836Z,966.81
2023-10-25T03:08:10.329Z,966.81
2023-10-25T03:08:44.766Z,966.81
2023-10-25T03:09:14.711Z,966.81
2023-10-25T03:09:56.717Z,966.91
2023-10-25T03:10:18.238Z,966.91
2023-10-25T03:11:06.049Z,966.91
2023-10-25T03:11:17.967Z,966.81
2023-10-25T03:11:49.010Z,966.81
2023-10-25T03:12:18.695Z,966.81
2023-10-25T03:12:51.005Z,966.81
2023-10-25T03:13:21.985Z,967.02
2023-10-25T03:13:54.241Z,967.02
2023-10-25T03:14:26.030Z,966.71
2023-10-25T03:14:55.890Z,966.71
2023-10-25T03:15:26.858Z,966.81
2023-10-25T03:15:56.893Z,966.81
2023-10-25T03:16:27.417Z,967.02
2023-10-25T03:16:58.170Z,967.02
2023-10-25T03:17:46.361Z,967.02
2023-10-25T03:17:59.670Z,967.02
2023-10-25T03:18:32.023Z,966.91
2023-10-25T03:19:04.898Z,966.91
2023-10-25T03:19:51.458Z,966.81
2023-10-25T03:20:07.870Z,966.81
2023-10-25T03:20:38.586Z,966.81
2023-10-25T03:21:06.333Z,966.81
2023-10-25T03:21:37.235Z,966.91
2023-10-25T03:22:08.661Z,966.91
2023-10-25T03:22:39.213Z,966.91
2023-10-25T03:23:10.272Z,966.91
2023-10-25T03:23:41.164Z,966.81
2023-10-25T03:24:13.711Z,966.81
2023-10-25T03:24:45.777Z,966.71
2023-10-25T03:25:16.530Z,966.71
2023-10-25T03:25:45.988Z,966.81
2023-10-25T03:26:17.525Z,966.81
2023-10-25T03:26:47.842Z,966.81
2023-10-25T03:27:18.394Z,966.61
2023-10-25T03:27:49.113Z,966.61
2023-10-25T03:28:19.948Z,966.71
2023-10-25T03:28:50.937Z,966.71
2023-10-25T03:29:22.993Z,966.71
2023-10-25T03:29:55.219Z,966.71
2023-10-25T03:30:27.588Z,967.02
2023-10-25T03:31:27.748Z,966.81
2023-10-25T03:31:57.882Z,966.81
2023-10-25T03:32:28.482Z,966.91
2023-10-25T03:32:59.331Z,966.91
2023-10-25T03:33:31.237Z,966.81
2023-10-25T03:34:01.410Z,966.81
2023-10-25T03:34:35.709Z,966.81
2023-10-25T03:35:06.016Z,966.81
2023-10-25T03:35:35.283Z,967.02
2023-10-25T03:36:06.662Z,967.02
2023-10-25T03:36:36.822Z,966.91
2023-10-25T03:37:07.501Z,966.91
2023-10-25T03:37:57.435Z,966.71
2023-10-25T03:38:09.810Z,966.71
2023-10-25T03:38:39.796Z,966.91
2023-10-25T03:39:11.274Z,966.91
2023-10-25T03:39:44.741Z,966.81
2023-10-25T03:40:15.875Z,966.81
2023-10-25T03:40:47.681Z,966.81
2023-10-25T03:41:17.051Z,966.81
2023-10-25T03:41:46.748Z,966.71
2023-10-25T03:42:18.279Z,966.61
2023-10-25T03:42:48.976Z,966.61
2023-10-25T03:43:20.672Z,966.61
2023-10-25T03:43:50.487Z,966.61
2023-10-25T03:44:21.617Z,966.61
2023-10-25T03:44:56.518Z,966.61
2023-10-25T03:45:57.130Z,966.91
2023-10-25T03:46:29.205Z,966.71
2023-10-25T03:46:56.651Z,966.71
2023-10-25T03:47:27.856Z,966.71
2023-10-25T03:47:58.630Z,966.71
2023-10-25T03:48:30.032Z,966.71
2023-10-25T03:49:00.675Z,966.71
2023-10-25T03:49:30.914Z,966.71
2023-10-25T03:50:05.091Z,966.71
2023-10-25T03:50:35.821Z,966.61
2023-10-25T03:51:06.109Z,966.61
2023-10-25T03:51:37.022Z,966.61
2023-10-25T03:52:07.339Z,966.61
2023-10-25T03:52:37.586Z,966.61
2023-10-25T03:53:08.652Z,966.61
2023-10-25T03:53:39.248Z,966.71
2023-10-25T03:54:10.181Z,966.71
2023-10-25T03:54:41.182Z,966.71
2023-10-25T03:55:12.840Z,966.71
2023-10-25T03:55:45.008Z,966.71
2023-10-25T03:56:16.452Z,966.71
2023-10-25T03:56:47.785Z,966.71
2023-10-25T03:57:17.805Z,966.71
2023-10-25T03:57:47.873Z,966.51
2023-10-25T03:58:18.660Z,966.71
2023-10-25T03:58:49.559Z,966.71
2023-10-25T03:59:20.637Z,966.51
2023-10-25T04:00:24.891Z,966.51
2023-10-25T04:00:53.708Z,966.51
2023-10-25T04:01:58.190Z,966.51
2023-10-25T04:02:28.222Z,966.61
2023-10-25T04:02:57.841Z,966.61
2023-10-25T04:03:29.294Z,966.51
2023-10-25T04:03:59.218Z,966.51
2023-10-25T04:04:31.723Z,966.51
2023-10-25T04:05:06.921Z,966.51
2023-10-25T04:05:34.977Z,966.61
2023-10-25T04:06:05.010Z,966.61
2023-10-25T04:06:35.292Z,966.41
2023-10-25T04:07:07.387Z,966.41
2023-10-25T04:07:36.149Z,966.51
2023-10-25T04:08:10.326Z,966.51
2023-10-25T04:08:40.683Z,966.51
2023-10-25T04:09:09.387Z,966.51
2023-10-25T04:09:41.716Z,966.51
2023-10-25T04:10:15.241Z,966.51
2023-10-25T04:10:45.236Z,966.61
2023-10-25T04:11:16.203Z,966.61
2023-10-25T04:11:45.597Z,966.30
2023-10-25T04:12:23.642Z,966.30
2023-10-25T04:12:50.015Z,966.51
2023-10-25T04:13:21.492Z,966.51
2023-10-25T04:13:51.562Z,966.51
2023-10-25T04:14:24.038Z,966.61
2023-10-25T04:15:02.829Z,966.61
2023-10-25T04:15:27.094Z,966.51
2023-10-25T04:15:59.362Z,966.51
2023-10-25T04:16:28.638Z,966.51
2023-10-25T04:16:55.887Z,966.51
2023-10-25T04:17:37.338Z,966.51
2023-10-25T04:18:04.066Z,966.51
2023-10-25T04:18:34.288Z,966.61
2023-10-25T04:19:00.319Z,966.61
2023-10-25T04:19:39.338Z,966.61
2023-10-25T04:20:04.470Z,966.61
2023-10-25T04:20:34.246Z,966.30
2023-10-25T04:21:05.710Z,966.30
2023-10-25T04:21:38.760Z,966.51
2023-10-25T04:22:09.570Z,966.51
2023-10-25T04:22:38.167Z,966.41
2023-10-25T04:23:09.742Z,966.41
2023-10-25T04:23:42.907Z,966.51
2023-10-25T04:24:13.529Z,966.51
2023-10-25T04:24:48.581Z,966.51
2023-10-25T04:25:15.487Z,966.51
2023-10-25T04:25:41.870Z,966.41
2023-10-25T04:26:15.523Z,966.41
2023-10-25T04:26:49.740Z,966.41
2023-10-25T04:27:17.997Z,966.41
2023-10-25T04:27:52.337Z,966.41
2023-10-25T04:28:20.985Z,966.41
2023-10-25T04:28:53.793Z,966.41
2023-10-25T04:29:24.348Z,966.30
2023-10-25T04:29:54.830Z,966.30
2023-10-25T04:30:30.040Z,966.51
2023-10-25T04:30:56.040Z,966.51
2023-10-25T04:31:31.044Z,966.51
2023-10-25T04:31:58.627Z,966.51
2023-10-25T04:32:29.014Z,966.51
2023-10-25T04:33:03.752Z,966.51
2023-10-25T04:33:31.790Z,966.51
2023-10-25T04:33:59.989Z,966.51
2023-10-25T04:34:34.450Z,966.20
2023-10-25T04:35:05.080Z,966.20
2023-10-25T04:35:34.422Z,966.41
2023-10-25T04:36:41.834Z,966.20
2023-10-25T04:37:07.108Z,966.20
2023-10-25T04:37:37.286Z,966.30
2023-10-25T04:38:09.461Z,966.30
2023-10-25T04:38:39.796Z,966.41
2023-10-25T04:39:09.735Z,966.41
2023-10-25T04:39:38.387Z,966.41
2023-10-25T04:40:19.947Z,966.41
2023-10-25T04:40:47.908Z,966.20
2023-10-25T04:41:14.705Z,966.20
2023-10-25T04:41:45.386Z,966.41
2023-10-25T04:42:17.455Z,966.41
2023-10-25T04:42:50.577Z,966.30
2023-10-25T04:43:19.945Z,966.30
2023-10-25T04:43:50.265Z,966.51
2023-10-25T04:44:20.937Z,966.30
2023-10-25T04:44:51.892Z,966.30
2023-10-25T04:45:26.489Z,966.41
2023-10-25T04:45:55.095Z,966.41
2023-10-25T04:46:28.183Z,966.41
2023-10-25T04:46:54.267Z,966.41
2023-10-25T04:47:26.029Z,966.30
2023-10-25T04:47:56.338Z,966.30
2023-10-25T04:48:34.245Z,966.30
2023-10-25T04:48:58.747Z,966.30
2023-10-25T04:49:29.617Z,966.20
2023-10-25T04:50:09.656Z,966.20
2023-10-25T04:50:32.221Z,966.10
2023-10-25T04:51:00.557Z,966.10
2023-10-25T04:51:33.240Z,966.20
2023-10-25T04:52:03.072Z,966.20
2023-10-25T04:52:33.287Z,966.10
2023-10-25T04:53:05.104Z,966.10
2023-10-25T04:53:37.874Z,966.00
2023-10-25T04:54:06.973Z,966.00
2023-10-25T04:54:38.182Z,966.10
2023-10-25T04:55:15.483Z,966.10
2023-10-25T04:55:42.055Z,966.00
2023-10-25T04:56:18.376Z,966.00
2023-10-25T04:56:42.598Z,966.00
2023-10-25T04:57:14.390Z,966.00
2023-10-25T04:57:43.876Z,965.90
2023-10-25T04:58:33.740Z,965.90
2023-10-25T04:58:46.443Z,965.90
2023-10-25T04:59:18.189Z,965.90
2023-10-25T04:59:47.412Z,965.80
2023-10-25T05:00:22.213Z,966.00
2023-10-25T05:00:50.738Z,966.00
2023-10-25T05:01:21.117Z,966.00
2023-10-25T05:02:24.870Z,965.90
2023-10-25T05:02:54.841Z,965.90
2023-10-25T05:03:28.761Z,966.00
2023-10-25T05:04:26.891Z,965.90
2023-10-25T05:04:57.119Z,965.90
2023-10-25T05:05:28.077Z,966.10
2023-10-25T05:05:58.615Z,966.10
2023-10-25T05:06:30.572Z,965.80
2023-10-25T05:07:01.842Z,965.80
2023-10-25T05:07:34.481Z,966.00
2023-10-25T05:08:06.918Z,966.00
2023-10-25T05:08:41.606Z,966.00
2023-10-25T05:09:06.951Z,966.00
2023-10-25T05:09:37.102Z,965.80
2023-10-25T05:10:08.711Z,965.80
2023-10-25T05:10:38.401Z,965.90
2023-10-25T05:11:10.756Z,965.90
2023-10-25T05:11:42.144Z,966.10
2023-10-25T05:12:13.964Z,966.10
2023-10-25T05:12:43.100Z,966.00
2023-10-25T05:13:15.574Z,966.00
2023-10-25T05:13:46.357Z,966.00
2023-10-25T05:14:16.803Z,966.00
2023-10-25T05:14:46.498Z,965.80
2023-10-25T05:15:18.735Z,966.00
2023-10-25T05:15:48.418Z,966.00
2023-10-25T05:16:19.745Z,966.00
2023-10-25T05:16:50.814Z,966.00
2023-10-25T05:17:21.922Z,965.90
2023-10-25T05:17:52.951Z,965.90
2023-10-25T05:18:25.324Z,966.00
2023-10-25T05:18:55.588Z,966.00
2023-10-25T05:19:26.981Z,965.80
2023-10-25T05:19:57.134Z,965.80
2023-10-25T05:20:29.360Z,965.90
2023-10-25T05:20:58.796Z,965.90
2023-10-25T05:21:29.274Z,965.80
2023-10-25T05:22:01.288Z,965.80
2023-10-25T05:22:31.356Z,965.90
2023-10-25T05:23:03.308Z,965.90
2023-10-25T05:23:35.164Z,965.90
2023-10-25T05:24:06.660Z,965.90
2023-10-25T05:24:36.063Z,965.90
2023-10-25T05:25:09.191Z,965.90
2023-10-25T05:25:37.285Z,966.00
2023-10-25T05:26:09.274Z,966.00
2023-10-25T05:26:45.029Z,965.90
2023-10-25T05:27:10.845Z,965.90
2023-10-25T05:27:42.237Z,966.00
2023-10-25T05:28:18.158Z,966.00
2023-10-25T05:28:46.339Z,966.20
2023-10-25T05:29:16.437Z,966.20
2023-10-25T05:29:49.846Z,965.80
2023-10-25T05:30:37.887Z,965.80
2023-10-25T05:30:48.783Z,966.20
2023-10-25T05:31:19.427Z,965.90
2023-10-25T05:32:07.361Z,965.90
2023-10-25T05:32:58.869Z,966.10
2023-10-25T05:33:22.448Z,966.00
2023-10-25T05:33:55.202Z,966.00
2023-10-25T05:34:26.767Z,966.10
2023-10-25T05:34:58.424Z,966.10
2023-10-25T05:35:27.764Z,965.90
2023-10-25T05:35:58.260Z,965.90
2023-10-25T05:36:28.689Z,966.20
2023-10-25T05:36:59.429Z,966.20
2023-10-25T05:37:47.947Z,966.10
2023-10-25T05:38:01.763Z,966.10
2023-10-25T05:38:32.669Z,966.20
2023-10-25T05:39:06.940Z,966.20
2023-10-25T05:39:37.547Z,966.10
2023-10-25T05:40:09.856Z,966.10
2023-10-25T05:40:38.354Z,966.00
2023-10-25T05:41:07.864Z,966.00
2023-10-25T05:41:37.941Z,965.90
2023-10-25T05:42:09.377Z,965.90
2023-10-25T05:42:58.055Z,965.90
2023-10-25T05:43:11.348Z,965.90
2023-10-25T05:43:43.893Z,965.90
2023-10-25T05:44:15.748Z,965.90
2023-10-25T05:44:46.174Z,966.10
2023-10-25T05:45:18.470Z,966.10
2023-10-25T05:45:47.821Z,965.90
2023-10-25T05:46:17.701Z,966.00
2023-10-25T05:47:07.768Z,966.00
2023-10-25T05:47:19.723Z,966.10
2023-10-25T05:47:50.350Z,966.10
2023-10-25T05:48:21.408Z,966.10
2023-10-25T05:49:23.783Z,966.00
2023-10-25T05:49:56.563Z,966.00
2023-10-25T05:50:28.591Z,965.90
2023-10-25T05:51:02.177Z,965.90
2023-10-25T05:51:27.950Z,966.10
2023-10-25T05:52:17.941Z,966.10
2023-10-25T05:52:29.524Z,966.30
2023-10-25T05:53:01.161Z,966.30
2023-10-25T05:53:31.312Z,966.00
2023-10-25T05:54:10.132Z,966.00
2023-10-25T05:54:38.111Z,966.41
2023-10-25T05:55:07.290Z,966.41
2023-10-25T05:55:53.150Z,966.20
2023-10-25T05:56:08.784Z,966.20
2023-10-25T05:56:38.394Z,966.20
2023-10-25T05:57:10.472Z,966.20
2023-10-25T05:57:39.725Z,966.00
2023-10-25T05:58:11.560Z,966.00
2023-10-25T05:58:41.779Z,966.20
2023-10-25T05:59:13.194Z,966.20
2023-10-25T05:59:44.991Z,966.10
2023-10-25T06:00:21.962Z,966.20
2023-10-25T06:00:48.467Z,966.20
2023-10-25T06:01:19.432Z,966.20
2023-10-25T06:01:48.478Z,966.30
2023-10-25T06:02:56.429Z,966.10
2023-10-25T06:03:31.458Z,966.10
2023-10-25T06:03:51.949Z,966.10
2023-10-25T06:04:23.107Z,966.10
2023-10-25T06:04:58.061Z,966.10
2023-10-25T06:05:27.534Z,966.10
2023-10-25T06:06:00.460Z,966.10
2023-10-25T06:06:27.867Z,966.30
2023-10-25T06:06:57.708Z,966.30
2023-10-25T06:07:33.200Z,966.30
2023-10-25T06:07:58.821Z,966.30
2023-10-25T06:08:31.744Z,966.10
2023-10-25T06:09:03.964Z,966.10
2023-10-25T06:09:32.868Z,966.30
2023-10-25T06:10:05.592Z,966.30
2023-10-25T06:10:37.180Z,966.20
2023-10-25T06:11:09.913Z,966.20
2023-10-25T06:11:47.248Z,966.20
2023-10-25T06:12:28.370Z,966.10
2023-10-25T06:12:39.149Z,966.10
2023-10-25T06:13:10.379Z,966.10
2023-10-25T06:13:48.193Z,966.20
2023-10-25T06:14:11.904Z,966.20
2023-10-25T06:14:44.759Z,965.90
2023-10-25T06:15:29.043Z,966.20
2023-10-25T06:15:46.284Z,966.20
2023-10-25T06:16:17.526Z,966.20
2023-10-25T06:16:48.956Z,966.00
2023-10-25T06:17:20.518Z,966.20
2023-10-25T06:17:57.599Z,966.20
2023-10-25T06:18:20.645Z,966.20
2023-10-25T06:18:51.446Z,966.20
2023-10-25T06:19:22.689Z,965.90
2023-10-25T06:19:53.720Z,965.90
2023-10-25T06:20:23.995Z,966.20
2023-10-25T06:20:58.372Z,966.20
2023-10-25T06:21:29.090Z,966.00
2023-10-25T06:21:59.887Z,966.00
2023-10-25T06:22:30.235Z,965.90
2023-10-25T06:23:03.194Z,965.90
2023-10-25T06:23:30.114Z,965.90
2023-10-25T06:24:02.818Z,965.90
2023-10-25T06:24:32.575Z,966.00
2023-10-25T06:25:03.578Z,966.00
2023-10-25T06:25:34.491Z,966.10
2023-10-25T06:26:06.559Z,966.10
2023-10-25T06:26:38.976Z,966.30
2023-10-25T06:27:09.048Z,966.30
2023-10-25T06:27:39.268Z,966.20
2023-10-25T06:28:10.285Z,966.20
2023-10-25T06:28:40.245Z,966.00
2023-10-25T06:29:11.514Z,966.00
2023-10-25T06:29:41.886Z,966.10
2023-10-25T06:30:14.897Z,966.10
2023-10-25T06:30:51.613Z,966.10
2023-10-25T06:31:17.909Z,966.10
2023-10-25T06:31:46.420Z,966.10
2023-10-25T06:32:19.412Z,966.10
2023-10-25T06:32:50.694Z,965.90
2023-10-25T06:33:21.184Z,966.10
2023-10-25T06:33:50.553Z,966.10
2023-10-25T06:34:22.519Z,965.90
2023-10-25T06:34:53.126Z,965.90
2023-10-25T06:35:23.694Z,966.10
2023-10-25T06:35:54.842Z,966.10
2023-10-25T06:36:25.897Z,966.00
2023-10-25T06:36:57.736Z,966.00
2023-10-25T06:37:29.894Z,966.10
2023-10-25T06:37:59.796Z,966.10
2023-10-25T06:38:30.941Z,965.80
2023-10-25T06:39:04.581Z,965.80
2023-10-25T06:39:32.298Z,966.20
2023-10-25T06:40:03.243Z,966.20